East Blackstone, Massachusetts
Current Conditions -  °F | °C
As of 5:15 PM on Thursday 23 Oct 2014 (Local Time) from KSFZ Reporting Station
Overcast Overcast  
Wind Chill: 52°   Ceiling: 500
Heat Index: 52°   Visibility: 3mi
Dew Point: 45°   Wind: 14mph
Humidity: 76%   Direction: 360°N
Pressure: 29.59"   Gusts: 25mph
Location:  42.0416°N, 71.5423°W
Report Text: KSFZ 232115Z 36012G22KT 3SM OVC005 11/07 A2959 RMK AO1 P0001
Loading
Personal Weather Stations






























Interactive Weather Map
Tropical Storm Tracking
New forecast layout! Learn more

10-Day Weather Forecast

Advertisements
Track Severe Weather on mobile